Time;durP1;ratioP1;P1;durP2;ratioP2;P2;SDS_P1;SDS_P2;PMS_P1;PMS_P2;Temp;Humidity;BMP_temperature;BMP_pressure;BME280_temperature;BME280_humidity;BME280_pressure;Samples;Min_cycle;Max_cycle;Signal;HPM_P1;HPM_P2
2020/12/16 00:00:40;;;;;;;19.37;15.20;;;6.60;99.90;;;;;;5026993;28;20544;-72
2020/12/16 00:03:06;;;;;;;18.40;15.97;;;6.70;99.90;;;;;;5028796;28;20544;-72
2020/12/16 00:05:32;;;;;;;20.77;16.20;;;6.70;99.90;;;;;;5028052;28;20590;-72
2020/12/16 00:07:59;;;;;;;19.17;17.13;;;6.70;99.90;;;;;;5028818;28;20540;-72
2020/12/16 00:10:25;;;;;;;22.27;17.90;;;6.70;99.90;;;;;;5027160;28;20449;-72
2020/12/16 00:12:51;;;;;;;19.67;17.67;;;6.90;99.90;;;;;;5028444;28;20484;-72
2020/12/16 00:15:19;;;;;;;18.20;16.30;;;7.00;99.90;;;;;;5028316;28;20447;-72
2020/12/16 00:17:45;;;;;;;19.90;17.67;;;7.00;99.90;;;;;;5028334;28;20495;-72
2020/12/16 00:20:11;;;;;;;24.20;21.13;;;6.90;99.90;;;;;;5027114;28;20552;-72
2020/12/16 00:22:39;;;;;;;20.63;17.93;;;6.80;99.90;;;;;;5027556;28;20433;-70
2020/12/16 00:25:07;;;;;;;22.50;17.70;;;6.80;99.90;;;;;;5027970;28;20480;-70
2020/12/16 00:27:34;;;;;;;23.00;19.37;;;6.80;99.90;;;;;;5027733;28;21094;-71
2020/12/16 00:30:01;;;;;;;23.33;19.10;;;6.80;99.90;;;;;;5027399;28;20522;-71
2020/12/16 00:32:30;;;;;;;21.60;19.30;;;6.80;99.90;;;;;;5027391;28;20995;-73
2020/12/16 00:34:58;;;;;;;23.20;19.27;;;6.80;99.90;;;;;;5027429;28;20983;-70
2020/12/16 00:37:24;;;;;;;25.27;18.87;;;6.80;99.90;;;;;;5027117;28;20475;-70
2020/12/16 00:39:51;;;;;;;22.00;18.43;;;6.80;99.90;;;;;;5027592;28;20801;-70
2020/12/16 00:42:17;;;;;;;21.27;18.97;;;6.80;99.90;;;;;;5027314;28;20503;-70
2020/12/16 00:44:43;;;;;;;27.57;19.40;;;6.70;99.90;;;;;;5027056;28;20518;-70
2020/12/16 00:47:10;;;;;;;18.70;16.63;;;6.70;99.90;;;;;;5027590;28;20540;-71
2020/12/16 00:49:37;;;;;;;20.67;16.67;;;6.60;99.90;;;;;;5027261;28;20527;-70
2020/12/16 00:52:03;;;;;;;20.07;17.97;;;6.60;99.90;;;;;;5027231;28;20453;-71
2020/12/16 00:54:30;;;;;;;21.17;16.70;;;6.60;99.90;;;;;;5027775;28;20857;-70
2020/12/16 00:56:56;;;;;;;19.93;17.43;;;6.60;99.90;;;;;;5027755;28;21341;-71
2020/12/16 00:59:22;;;;;;;17.53;15.43;;;6.50;99.90;;;;;;5027354;28;20445;-71
2020/12/16 01:01:49;;;;;;;19.53;17.37;;;6.50;99.90;;;;;;5026668;28;20964;-71
2020/12/16 01:04:15;;;;;;;17.27;15.57;;;6.40;99.90;;;;;;5027586;28;21035;-70
2020/12/16 01:06:42;;;;;;;22.47;17.70;;;6.40;99.90;;;;;;5027575;28;20449;-71
2020/12/16 01:09:09;;;;;;;28.80;19.67;;;6.40;99.90;;;;;;5027805;28;20467;-71
2020/12/16 01:11:36;;;;;;;22.97;20.27;;;6.40;99.90;;;;;;5026175;28;20455;-71
2020/12/16 01:14:04;;;;;;;24.63;19.03;;;6.40;99.90;;;;;;5030755;28;20564;-71
2020/12/16 01:16:35;;;;;;;22.53;20.13;;;6.50;99.90;;;;;;5031269;28;20486;-71
2020/12/16 01:19:01;;;;;;;20.60;17.30;;;6.60;99.90;;;;;;5031707;28;20460;-71
2020/12/16 01:21:28;;;;;;;21.23;17.37;;;6.60;99.90;;;;;;5030124;28;20479;-71
2020/12/16 01:23:55;;;;;;;18.90;16.90;;;6.60;99.90;;;;;;5031757;28;20519;-71
2020/12/16 01:26:22;;;;;;;19.70;17.57;;;6.60;99.90;;;;;;5030838;28;20453;-71
2020/12/16 01:28:48;;;;;;;23.10;20.30;;;6.70;99.90;;;;;;5031466;28;20445;-71
2020/12/16 01:31:14;;;;;;;24.50;22.00;;;6.80;99.90;;;;;;5024613;28;20472;-71
2020/12/16 01:33:41;;;;;;;29.73;25.23;;;6.90;99.90;;;;;;5011154;28;20864;-70
2020/12/16 01:36:07;;;;;;;27.70;23.43;;;7.10;99.90;;;;;;5013851;28;20556;-69
2020/12/16 01:38:34;;;;;;;29.60;23.97;;;7.10;99.90;;;;;;5032081;28;20838;-70
2020/12/16 01:41:05;;;;;;;30.03;23.90;;;7.20;99.90;;;;;;5030990;28;20966;-70
2020/12/16 01:43:36;;;;;;;27.67;23.70;;;7.30;99.90;;;;;;5031803;28;20471;-70
2020/12/16 01:46:05;;;;;;;28.03;24.90;;;7.30;99.90;;;;;;5030682;28;20864;-70
2020/12/16 01:48:31;;;;;;;26.07;20.63;;;7.30;99.90;;;;;;5032033;28;20456;-70
2020/12/16 01:50:58;;;;;;;26.07;22.03;;;7.30;99.90;;;;;;5031311;28;20441;-70
2020/12/16 01:53:28;;;;;;;25.63;21.37;;;7.30;99.90;;;;;;5031536;28;20495;-70
2020/12/16 01:55:54;;;;;;;23.37;19.93;;;7.30;99.90;;;;;;5031631;28;20528;-70
2020/12/16 01:58:24;;;;;;;25.60;19.90;;;7.20;99.90;;;;;;5031912;28;20445;-70
2020/12/16 02:00:52;;;;;;;28.23;21.53;;;7.20;99.90;;;;;;5031181;28;20506;-69
2020/12/16 02:03:21;;;;;;;24.33;20.97;;;7.30;99.90;;;;;;5031760;28;20457;-70
2020/12/16 02:05:51;;;;;;;21.13;18.57;;;7.30;99.90;;;;;;5031545;28;20535;-70
2020/12/16 02:08:20;;;;;;;23.10;20.50;;;7.30;99.90;;;;;;5031472;28;20498;-70
2020/12/16 02:10:47;;;;;;;24.13;19.77;;;7.20;99.90;;;;;;5030683;28;20440;-69
2020/12/16 02:13:13;;;;;;;23.27;18.10;;;7.30;99.90;;;;;;5031458;28;20638;-70
2020/12/16 02:15:41;;;;;;;21.77;19.53;;;7.30;99.90;;;;;;5031476;28;20452;-70
2020/12/16 02:18:08;;;;;;;18.77;16.90;;;7.20;99.90;;;;;;5031449;28;20468;-70
2020/12/16 02:20:34;;;;;;;20.23;16.97;;;7.20;99.90;;;;;;5030648;28;20556;-70
2020/12/16 02:23:07;;;;;;;25.30;20.23;;;7.20;99.90;;;;;;5031175;28;20527;-70
2020/12/16 02:25:34;;;;;;;20.47;18.37;;;7.10;99.90;;;;;;5031457;28;20459;-70
2020/12/16 02:28:01;;;;;;;24.53;19.43;;;7.20;99.90;;;;;;5030967;28;20544;-70
2020/12/16 02:30:27;;;;;;;20.30;17.40;;;7.20;99.90;;;;;;5030346;28;20544;-70
2020/12/16 02:32:53;;;;;;;18.00;16.10;;;7.20;99.90;;;;;;5031028;28;20568;-70
2020/12/16 02:35:20;;;;;;;18.07;16.23;;;7.10;99.90;;;;;;5031082;28;20535;-69
2020/12/16 02:37:46;;;;;;;19.10;17.13;;;7.10;99.90;;;;;;5031064;28;20449;-70
2020/12/16 02:40:12;;;;;;;19.87;17.80;;;7.10;99.90;;;;;;5030599;28;20532;-70
2020/12/16 02:42:40;;;;;;;21.40;19.00;;;7.10;99.90;;;;;;5031221;28;20528;-70
2020/12/16 02:45:06;;;;;;;21.23;18.97;;;7.20;99.90;;;;;;5031021;28;20535;-70
2020/12/16 02:47:32;;;;;;;21.87;18.37;;;7.20;99.90;;;;;;5031955;28;20444;-70
2020/12/16 02:49:59;;;;;;;22.43;18.10;;;7.20;99.90;;;;;;5031086;28;20440;-70
2020/12/16 02:52:25;;;;;;;24.27;18.17;;;7.20;99.90;;;;;;5030599;28;21023;-70
2020/12/16 02:54:52;;;;;;;20.90;17.97;;;7.20;99.90;;;;;;5030917;28;20468;-70
2020/12/16 02:57:18;;;;;;;21.73;18.47;;;7.10;99.90;;;;;;5030858;28;20524;-70
2020/12/16 02:59:56;;;;;;;22.47;20.00;;;7.20;99.90;;;;;;5030800;28;20473;-70
2020/12/16 03:02:22;;;;;;;28.60;20.97;;;7.20;99.90;;;;;;5030462;28;20464;-70
2020/12/16 03:04:48;;;;;;;22.40;20.00;;;7.20;99.90;;;;;;5029847;28;20849;-70
2020/12/16 03:07:15;;;;;;;22.30;18.73;;;7.20;99.90;;;;;;5030278;28;20594;-70
2020/12/16 03:09:41;;;;;;;23.43;19.57;;;7.20;99.90;;;;;;5030720;28;20449;-70
2020/12/16 03:12:08;;;;;;;20.93;17.50;;;7.20;99.90;;;;;;5029950;28;20490;-70
2020/12/16 03:14:34;;;;;;;20.33;18.13;;;7.20;99.90;;;;;;5030184;28;20489;-70
2020/12/16 03:17:01;;;;;;;20.60;16.63;;;7.20;99.90;;;;;;5030150;28;20452;-69
2020/12/16 03:19:28;;;;;;;20.73;18.20;;;7.10;99.90;;;;;;5030031;28;20520;-69
2020/12/16 03:21:55;;;;;;;19.90;16.70;;;7.10;99.90;;;;;;5029395;28;20553;-70
2020/12/16 03:24:21;;;;;;;22.70;17.57;;;7.00;99.90;;;;;;5029973;28;20475;-70
2020/12/16 03:26:48;;;;;;;20.97;18.23;;;6.90;99.90;;;;;;5030103;28;20510;-70
2020/12/16 03:29:14;;;;;;;24.80;19.10;;;6.90;99.90;;;;;;5029793;28;20540;-70
2020/12/16 03:31:41;;;;;;;20.67;18.47;;;6.90;99.90;;;;;;5029207;28;20448;-69
2020/12/16 03:34:08;;;;;;;22.97;19.47;;;6.90;99.90;;;;;;5029583;28;21212;-70
2020/12/16 03:36:35;;;;;;;22.83;19.90;;;6.90;99.90;;;;;;5029192;28;20456;-70
2020/12/16 03:39:02;;;;;;;21.27;18.97;;;7.00;99.90;;;;;;5029887;28;20540;-69
2020/12/16 03:41:29;;;;;;;22.70;17.57;;;7.00;99.90;;;;;;5029067;28;20454;-70
2020/12/16 03:43:55;;;;;;;20.63;17.63;;;7.00;99.90;;;;;;5029507;28;20559;-70
2020/12/16 03:46:21;;;;;;;22.60;20.23;;;7.00;99.90;;;;;;5029918;28;20452;-70
2020/12/16 03:48:48;;;;;;;26.40;21.00;;;7.00;99.90;;;;;;5029577;28;20445;-70
2020/12/16 03:51:15;;;;;;;25.37;21.33;;;7.00;99.90;;;;;;5029157;28;20563;-69
2020/12/16 03:53:43;;;;;;;21.23;19.10;;;7.00;99.90;;;;;;5030072;28;20499;-70
2020/12/16 03:56:10;;;;;;;20.23;18.10;;;7.00;99.90;;;;;;5031624;28;20456;-70
2020/12/16 03:58:40;;;;;;;24.13;20.30;;;7.00;99.90;;;;;;5031746;28;20514;-70
2020/12/16 04:01:07;;;;;;;24.30;19.47;;;7.00;99.90;;;;;;5030010;28;20451;-69
2020/12/16 04:03:34;;;;;;;24.13;19.80;;;7.10;99.90;;;;;;5029182;28;20979;-70
2020/12/16 04:06:01;;;;;;;24.30;20.77;;;7.10;99.90;;;;;;5029388;28;20514;-70
2020/12/16 04:08:28;;;;;;;22.33;19.20;;;7.10;99.90;;;;;;5029270;28;20480;-70
2020/12/16 04:10:54;;;;;;;21.70;18.27;;;7.10;99.90;;;;;;5028456;28;20460;-70
2020/12/16 04:13:22;;;;;;;25.60;19.57;;;7.10;99.90;;;;;;5028972;28;20595;-70
2020/12/16 04:15:48;;;;;;;19.23;17.27;;;7.10;99.90;;;;;;5029282;28;20476;-70
2020/12/16 04:18:15;;;;;;;21.67;17.30;;;7.00;99.90;;;;;;5029245;28;20823;-70
2020/12/16 04:20:41;;;;;;;22.40;18.83;;;7.00;99.90;;;;;;5028488;28;20459;-70
2020/12/16 04:23:08;;;;;;;22.40;18.07;;;7.00;99.90;;;;;;5028829;28;20465;-70
2020/12/16 04:25:36;;;;;;;21.10;18.37;;;6.90;99.90;;;;;;5029109;28;20452;-70
2020/12/16 04:28:03;;;;;;;18.90;16.90;;;6.90;99.90;;;;;;5028802;28;20455;-70
2020/12/16 04:30:29;;;;;;;19.60;17.43;;;6.90;99.90;;;;;;5028413;28;20456;-70
2020/12/16 04:32:57;;;;;;;23.67;18.97;;;6.90;99.90;;;;;;5028745;28;20487;-70
2020/12/16 04:35:24;;;;;;;20.57;17.93;;;6.80;99.90;;;;;;5028875;28;20499;-70
2020/12/16 04:37:52;;;;;;;24.27;17.53;;;6.80;99.90;;;;;;5028804;28;20471;-70
2020/12/16 04:40:18;;;;;;;19.63;17.53;;;6.80;99.90;;;;;;5028001;28;20448;-70
2020/12/16 04:42:59;;;;;;;20.83;17.77;;;6.80;99.90;;;;;;5028102;28;20536;-70
2020/12/16 04:45:25;;;;;;;21.77;19.37;;;6.80;99.90;;;;;;5028875;28;20867;-70
2020/12/16 04:47:52;;;;;;;21.30;17.50;;;6.70;99.90;;;;;;5026852;28;20829;-70
2020/12/16 04:50:18;;;;;;;19.90;16.93;;;6.60;99.90;;;;;;5027940;28;20445;-70
2020/12/16 04:52:49;;;;;;;19.20;15.90;;;6.50;99.90;;;;;;5028574;28;20575;-70
2020/12/16 04:55:16;;;;;;;27.37;19.20;;;6.50;99.90;;;;;;5028642;28;20475;-70
2020/12/16 04:57:49;;;;;;;21.10;16.67;;;6.50;99.90;;;;;;5028705;28;20536;-70
2020/12/16 05:00:15;;;;;;;23.70;18.67;;;6.40;99.90;;;;;;5027793;28;20973;-70
2020/12/16 05:02:50;;;;;;;22.07;19.73;;;6.30;99.90;;;;;;5028515;28;20869;-70
2020/12/16 05:05:16;;;;;;;20.37;17.87;;;6.30;99.90;;;;;;5028509;28;20452;-70
2020/12/16 05:07:42;;;;;;;22.10;19.80;;;6.30;99.90;;;;;;5028384;28;20449;-70
2020/12/16 05:10:09;;;;;;;24.43;19.33;;;6.30;99.90;;;;;;5027908;28;20458;-70
2020/12/16 05:12:36;;;;;;;22.30;19.93;;;6.30;99.90;;;;;;5028322;28;20476;-70
2020/12/16 05:15:03;;;;;;;25.70;20.20;;;6.30;99.90;;;;;;5028254;28;20997;-70
2020/12/16 05:17:30;;;;;;;25.53;21.13;;;6.30;99.90;;;;;;5028278;28;20467;-70
2020/12/16 05:19:56;;;;;;;23.67;19.87;;;6.30;99.90;;;;;;5027969;28;20480;-70
2020/12/16 05:22:24;;;;;;;20.50;18.30;;;6.30;99.90;;;;;;5028357;28;20449;-70
2020/12/16 05:24:52;;;;;;;21.50;18.33;;;6.30;99.90;;;;;;5028508;28;20472;-70
2020/12/16 05:27:21;;;;;;;23.27;19.20;;;6.20;99.90;;;;;;5028598;28;20449;-70
2020/12/16 05:29:51;;;;;;;20.33;17.23;;;6.20;99.90;;;;;;5028377;28;20999;-70
2020/12/16 05:32:21;;;;;;;21.43;18.07;;;6.20;99.90;;;;;;5027588;28;20456;-70
2020/12/16 05:34:48;;;;;;;21.40;18.53;;;6.20;99.90;;;;;;5028461;28;20515;-70
2020/12/16 05:37:36;;;;;;;25.60;21.63;;;6.30;99.90;;;;;;5028644;28;20440;-70
2020/12/16 05:40:06;;;;;;;21.27;19.00;;;6.30;99.90;;;;;;5027954;28;20444;-70
2020/12/16 05:42:33;;;;;;;20.90;18.70;;;6.40;99.90;;;;;;5028246;28;20441;-71
2020/12/16 05:45:06;;;;;;;26.23;20.07;;;6.50;99.90;;;;;;5028133;28;20557;-70
2020/12/16 05:47:34;;;;;;;25.67;20.67;;;6.50;99.90;;;;;;5027331;28;20445;-70
2020/12/16 05:50:00;;;;;;;22.57;18.33;;;6.50;99.90;;;;;;5027652;28;20452;-70
2020/12/16 05:52:26;;;;;;;19.33;17.20;;;6.50;99.90;;;;;;5028033;28;20531;-70
2020/12/16 05:54:53;;;;;;;21.70;17.83;;;6.50;99.90;;;;;;5028021;28;20465;-70
2020/12/16 05:57:24;;;;;;;21.80;18.50;;;6.50;99.90;;;;;;5027953;28;20555;-70
2020/12/16 06:00:08;;;;;;;21.23;17.57;;;6.50;99.90;;;;;;5030924;28;20483;-69
2020/12/16 06:02:37;;;;;;;18.63;16.37;;;6.50;99.90;;;;;;5031721;28;20539;-69
2020/12/16 06:05:08;;;;;;;21.00;16.67;;;6.50;99.90;;;;;;5031568;28;21095;-69
2020/12/16 06:07:38;;;;;;;18.60;15.43;;;6.50;99.90;;;;;;5031562;28;20536;-69
2020/12/16 06:10:05;;;;;;;16.20;14.50;;;6.50;99.90;;;;;;5030810;28;20981;-69
2020/12/16 06:12:35;;;;;;;18.70;15.80;;;6.50;99.90;;;;;;5031200;28;20997;-69
2020/12/16 06:15:08;;;;;;;15.77;13.90;;;6.50;99.90;;;;;;5031432;28;20499;-69
2020/12/16 06:17:40;;;;;;;17.17;15.30;;;6.50;99.90;;;;;;5031193;28;20544;-69
2020/12/16 06:20:14;;;;;;;18.17;15.10;;;6.50;99.90;;;;;;5030682;28;21033;-69
2020/12/16 06:22:42;;;;;;;15.80;12.90;;;6.50;99.90;;;;;;5031137;28;21010;-69
2020/12/16 06:25:12;;;;;;;17.23;14.20;;;6.50;99.90;;;;;;5031267;28;20456;-70
2020/12/16 06:27:43;;;;;;;16.80;14.37;;;6.50;99.90;;;;;;5031242;28;20448;-69
2020/12/16 06:30:17;;;;;;;17.33;13.30;;;6.50;99.90;;;;;;5030613;28;20448;-69
2020/12/16 06:32:49;;;;;;;17.33;14.57;;;6.50;99.90;;;;;;5030835;28;20966;-69
2020/12/16 06:35:19;;;;;;;17.23;13.50;;;6.50;99.90;;;;;;5030942;28;20967;-69
2020/12/16 06:37:47;;;;;;;17.93;13.83;;;6.50;99.90;;;;;;5031252;28;20510;-69
2020/12/16 06:40:43;;;;;;;15.67;13.73;;;6.50;99.90;;;;;;5030406;28;20448;-70
2020/12/16 06:43:37;;;;;;;18.90;15.37;;;6.50;99.90;;;;;;5030886;28;20464;-69
2020/12/16 06:46:05;;;;;;;15.10;13.50;;;6.50;99.90;;;;;;5031042;28;20537;-69
2020/12/16 06:48:36;;;;;;;16.83;13.60;;;6.50;99.90;;;;;;5030902;28;20449;-69
2020/12/16 06:51:16;;;;;;;20.97;15.10;;;6.50;99.90;;;;;;5030175;28;20451;-69
2020/12/16 06:53:42;;;;;;;15.40;13.30;;;6.40;99.90;;;;;;5030495;28;20476;-69
2020/12/16 06:56:09;;;;;;;18.50;14.60;;;6.40;99.90;;;;;;5030792;28;20890;-70
2020/12/16 06:58:36;;;;;;;17.27;14.30;;;6.40;99.90;;;;;;5030427;28;20543;-70
2020/12/16 07:01:12;;;;;;;16.90;15.10;;;6.40;99.90;;;;;;5029799;28;20969;-69
2020/12/16 07:03:40;;;;;;;15.47;13.50;;;6.40;99.90;;;;;;5030496;28;20468;-69
2020/12/16 07:06:10;;;;;;;19.13;14.90;;;6.40;99.90;;;;;;5030542;28;20475;-69
2020/12/16 07:08:37;;;;;;;18.13;14.47;;;6.40;99.90;;;;;;5030366;28;20445;-70
2020/12/16 07:11:03;;;;;;;19.23;15.40;;;6.40;99.90;;;;;;5028701;28;20483;-69
2020/12/16 07:13:31;;;;;;;21.13;15.37;;;6.40;99.90;;;;;;5030362;28;20571;-69
2020/12/16 07:16:05;;;;;;;17.80;14.40;;;6.40;99.90;;;;;;5030298;28;20453;-69
2020/12/16 07:18:54;;;;;;;19.20;15.83;;;6.40;99.90;;;;;;5030159;28;20494;-69
2020/12/16 07:21:31;;;;;;;18.23;15.33;;;6.40;99.90;;;;;;5029696;28;20835;-69
2020/12/16 07:24:13;;;;;;;18.70;16.07;;;6.50;99.90;;;;;;5029772;28;20936;-69
2020/12/16 07:26:46;;;;;;;15.80;14.07;;;6.50;99.90;;;;;;5027253;28;20461;-69
2020/12/16 07:29:29;;;;;;;20.70;17.00;;;6.50;99.90;;;;;;5030413;28;20453;-69
2020/12/16 07:31:57;;;;;;;15.80;12.87;;;6.50;99.90;;;;;;5029830;28;20595;-69
2020/12/16 07:34:24;;;;;;;15.77;14.07;;;6.50;99.90;;;;;;5030583;28;20575;-70
2020/12/16 07:36:59;;;;;;;15.40;13.27;;;6.50;99.90;;;;;;5032103;28;20590;-70
2020/12/16 07:39:26;;;;;;;14.50;13.00;;;6.60;99.90;;;;;;5030953;28;20524;-71
2020/12/16 07:41:54;;;;;;;16.67;14.03;;;6.60;99.90;;;;;;5033375;28;20541;-70
2020/12/16 07:44:21;;;;;;;18.00;15.00;;;6.60;99.90;;;;;;5029696;28;20465;-71
2020/12/16 07:46:47;;;;;;;14.30;12.60;;;6.60;99.90;;;;;;5030122;28;20494;-70
2020/12/16 07:49:16;;;;;;;17.37;14.37;;;6.60;99.90;;;;;;5029870;28;20444;-70
2020/12/16 07:51:43;;;;;;;15.30;12.40;;;6.60;99.90;;;;;;5028930;28;20994;-70
2020/12/16 07:54:10;;;;;;;15.13;13.50;;;6.70;99.90;;;;;;5029284;28;20493;-70
2020/12/16 07:56:36;;;;;;;14.53;12.80;;;6.70;99.90;;;;;;5029696;28;20552;-70
2020/12/16 07:59:12;;;;;;;15.50;12.67;;;6.70;99.90;;;;;;5029527;28;20897;-70
2020/12/16 08:01:39;;;;;;;15.70;13.40;;;6.70;99.90;;;;;;5028854;28;20464;-70
2020/12/16 08:04:06;;;;;;;14.07;11.93;;;6.80;99.90;;;;;;5029110;28;20476;-70
2020/12/16 08:06:33;;;;;;;13.67;12.00;;;6.80;99.90;;;;;;5029214;28;20812;-70
2020/12/16 08:09:00;;;;;;;14.87;11.20;;;6.80;99.90;;;;;;5029461;28;20449;-70
2020/12/16 08:11:28;;;;;;;11.60;10.00;;;6.80;99.90;;;;;;5028683;28;21039;-71
2020/12/16 08:14:05;;;;;;;12.17;10.97;;;6.80;99.90;;;;;;5029226;28;20881;-70
2020/12/16 08:16:32;;;;;;;14.00;11.70;;;6.80;99.90;;;;;;5029311;28;20471;-70
2020/12/16 08:18:58;;;;;;;12.33;11.03;;;6.80;99.90;;;;;;5029426;28;20619;-71
2020/12/16 08:21:25;;;;;;;13.50;11.70;;;6.80;99.90;;;;;;5022838;28;20548;-70
2020/12/16 08:23:53;;;;;;;14.80;12.00;;;6.80;99.90;;;;;;5009390;28;20847;-70
2020/12/16 08:26:23;;;;;;;14.90;13.27;;;6.80;99.90;;;;;;5009359;28;21019;-73
2020/12/16 08:28:50;;;;;;;13.47;12.17;;;6.90;99.90;;;;;;5009335;28;20524;-70
2020/12/16 08:31:18;;;;;;;15.17;13.60;;;6.90;99.90;;;;;;5008719;28;20453;-70
2020/12/16 08:33:47;;;;;;;14.63;12.60;;;7.00;99.90;;;;;;5008906;28;20493;-71
2020/12/16 08:36:18;;;;;;;14.00;12.37;;;7.10;99.90;;;;;;5023184;28;20448;-70
2020/12/16 08:38:46;;;;;;;14.43;12.60;;;7.20;99.90;;;;;;5027036;28;21156;-70
2020/12/16 08:41:25;;;;;;;12.83;11.43;;;7.30;99.90;;;;;;5028406;28;20552;-70
2020/12/16 08:43:53;;;;;;;14.87;12.37;;;7.50;99.90;;;;;;5030391;28;20465;-71
2020/12/16 08:46:23;;;;;;;13.87;11.87;;;7.60;99.90;;;;;;5030391;28;20441;-70
2020/12/16 08:48:51;;;;;;;14.63;12.83;;;7.70;99.90;;;;;;5028904;28;20456;-70
2020/12/16 08:51:19;;;;;;;12.40;11.20;;;7.80;99.90;;;;;;5029481;28;20542;-69
2020/12/16 08:53:51;;;;;;;13.27;11.87;;;7.90;99.90;;;;;;5039239;28;20865;-70
2020/12/16 08:56:25;;;;;;;13.77;12.37;;;8.00;99.90;;;;;;5031148;28;20448;-72
2020/12/16 08:59:09;;;;;;;13.10;11.23;;;8.00;99.90;;;;;;5039107;28;20523;-71
2020/12/16 09:01:37;;;;;;;10.70;9.60;;;8.00;99.90;;;;;;5048272;28;20593;-71
2020/12/16 09:04:04;;;;;;;11.67;10.47;;;8.10;99.90;;;;;;5048832;28;21094;-71
2020/12/16 09:06:31;;;;;;;12.03;10.83;;;8.00;99.90;;;;;;5048535;28;20441;-70
2020/12/16 09:08:57;;;;;;;10.77;9.77;;;8.00;99.90;;;;;;5048706;28;21243;-71
2020/12/16 09:11:25;;;;;;;11.20;10.10;;;7.80;99.90;;;;;;5047701;28;20536;-71
2020/12/16 09:13:58;;;;;;;11.17;10.00;;;7.80;99.90;;;;;;5048640;28;20489;-70
2020/12/16 09:16:25;;;;;;;12.43;10.83;;;7.80;99.90;;;;;;5048378;28;20451;-70
2020/12/16 09:18:53;;;;;;;13.30;11.43;;;7.90;99.90;;;;;;5048421;28;20552;-71
2020/12/16 09:21:31;;;;;;;14.10;11.03;;;7.90;99.90;;;;;;5033238;28;20449;-70
2020/12/16 09:23:58;;;;;;;11.70;10.47;;;8.00;99.90;;;;;;5027225;28;20464;-71
2020/12/16 09:26:35;;;;;;;11.50;9.73;;;8.00;99.90;;;;;;5027617;28;20488;-70
2020/12/16 09:29:01;;;;;;;13.00;10.57;;;8.20;99.90;;;;;;5026429;28;20513;-71
2020/12/16 09:31:27;;;;;;;11.43;10.33;;;8.20;99.90;;;;;;5021964;28;20544;-76
2020/12/16 09:33:57;;;;;;;12.03;10.90;;;8.30;99.90;;;;;;5023189;28;20571;-70
2020/12/16 09:36:26;;;;;;;11.07;9.97;;;8.30;99.90;;;;;;5015829;28;20951;-71
2020/12/16 09:38:57;;;;;;;11.67;10.30;;;8.20;99.90;;;;;;5037237;28;20456;-71
2020/12/16 09:41:24;;;;;;;11.70;9.73;;;8.20;99.90;;;;;;5039742;28;20529;-71
2020/12/16 09:43:52;;;;;;;9.70;8.70;;;8.20;99.90;;;;;;5042718;28;20487;-72
2020/12/16 09:46:22;;;;;;;9.83;8.60;;;8.10;99.90;;;;;;5033784;28;20839;-71
2020/12/16 09:48:50;;;;;;;10.30;9.10;;;8.20;99.90;;;;;;5030828;28;20456;-71
2020/12/16 09:51:20;;;;;;;9.93;8.10;;;8.30;99.90;;;;;;5023337;28;20479;-72
2020/12/16 09:53:47;;;;;;;9.60;8.63;;;8.40;99.90;;;;;;5037854;28;20998;-71
2020/12/16 09:56:24;;;;;;;11.63;9.63;;;8.50;99.90;;;;;;5031809;28;20455;-71
2020/12/16 09:58:52;;;;;;;8.30;7.50;;;8.80;99.90;;;;;;5021397;28;20470;-71
2020/12/16 10:01:18;;;;;;;10.10;7.70;;;9.00;99.90;;;;;;5024935;28;20441;-69
2020/12/16 10:03:48;;;;;;;9.33;8.23;;;9.30;99.90;;;;;;5029149;28;20556;-70
2020/12/16 10:06:15;;;;;;;8.67;7.77;;;9.60;99.90;;;;;;5027653;28;20471;-71
2020/12/16 10:08:42;;;;;;;7.80;7.00;;;9.60;99.90;;;;;;5028431;28;20478;-71
2020/12/16 10:11:12;;;;;;;8.90;7.50;;;9.70;99.90;;;;;;5018854;28;20533;-71
2020/12/16 10:13:39;;;;;;;8.17;7.20;;;9.70;99.90;;;;;;5018669;28;20501;-71
2020/12/16 10:16:08;;;;;;;10.63;7.53;;;9.80;99.90;;;;;;5010337;28;20548;-71
2020/12/16 10:18:34;;;;;;;8.50;7.47;;;10.00;99.90;;;;;;5035529;28;20483;-71
2020/12/16 10:21:01;;;;;;;7.40;6.70;;;10.50;99.90;;;;;;5032925;28;20454;-70
2020/12/16 10:23:27;;;;;;;8.10;7.17;;;11.30;99.90;;;;;;5050147;28;20547;-71
2020/12/16 10:25:53;;;;;;;7.67;6.87;;;12.20;99.90;;;;;;5038495;28;21104;-71
2020/12/16 10:28:21;;;;;;;6.83;6.10;;;13.10;99.90;;;;;;5030530;28;20444;-71
2020/12/16 10:30:48;;;;;;;7.40;6.60;;;13.60;99.90;;;;;;5029202;28;20456;-72
2020/12/16 10:33:15;;;;;;;8.77;7.90;;;13.80;99.90;;;;;;5031198;28;21366;-71
2020/12/16 10:35:42;;;;;;;7.53;6.73;;;13.70;99.90;;;;;;5021841;28;20453;-70
2020/12/16 10:38:08;;;;;;;7.30;6.60;;;13.90;99.90;;;;;;5030091;28;20536;-71
2020/12/16 10:40:35;;;;;;;7.00;6.30;;;14.00;99.90;;;;;;5029273;28;20445;-70
2020/12/16 10:43:02;;;;;;;7.40;6.67;;;13.80;99.90;;;;;;5030192;28;20975;-70
2020/12/16 10:45:28;;;;;;;7.40;6.70;;;13.40;99.90;;;;;;5044809;28;20475;-72
2020/12/16 10:47:59;;;;;;;9.20;6.70;;;13.00;99.90;;;;;;5030978;28;20449;-71
2020/12/16 10:50:30;;;;;;;6.93;6.17;;;12.60;99.90;;;;;;5013448;28;21015;-72
2020/12/16 10:52:56;;;;;;;8.13;7.33;;;12.20;99.90;;;;;;5011676;28;20513;-71
2020/12/16 10:55:23;;;;;;;7.80;7.03;;;11.90;99.90;;;;;;5011030;28;21013;-70
2020/12/16 10:57:51;;;;;;;7.23;6.53;;;11.60;99.90;;;;;;5010258;28;20584;-72
2020/12/16 11:00:17;;;;;;;8.30;7.50;;;11.50;99.90;;;;;;5031046;28;20541;-72
2020/12/16 11:02:44;;;;;;;9.87;8.23;;;11.30;99.90;;;;;;5048079;28;20486;-71
2020/12/16 11:05:10;;;;;;;9.27;8.37;;;11.20;99.90;;;;;;5049762;28;20444;-71
2020/12/16 11:07:36;;;;;;;12.60;8.97;;;11.00;99.90;;;;;;5049922;28;20476;-71
2020/12/16 11:10:03;;;;;;;9.73;8.73;;;11.00;99.90;;;;;;5049449;28;20452;-71
2020/12/16 11:12:30;;;;;;;11.23;10.13;;;10.90;99.90;;;;;;5050242;28;20539;-71
2020/12/16 11:14:58;;;;;;;10.23;9.23;;;10.90;99.90;;;;;;5038910;28;20547;-71
2020/12/16 11:17:24;;;;;;;11.00;9.83;;;10.90;99.90;;;;;;5045868;28;20475;-71
2020/12/16 11:19:50;;;;;;;11.40;9.30;;;11.10;99.90;;;;;;5049874;28;20531;-71
2020/12/16 11:22:17;;;;;;;9.87;8.80;;;11.30;99.90;;;;;;5049560;28;20487;-71
2020/12/16 11:24:43;;;;;;;11.13;9.60;;;11.50;99.90;;;;;;5049909;28;21022;-71
2020/12/16 11:27:09;;;;;;;11.10;9.33;;;11.60;99.90;;;;;;5050068;28;21363;-70
2020/12/16 11:29:37;;;;;;;10.37;8.70;;;11.60;99.90;;;;;;5049756;28;20448;-71
2020/12/16 11:32:04;;;;;;;12.27;9.67;;;11.70;99.90;;;;;;5049342;28;20933;-71
2020/12/16 11:34:32;;;;;;;11.00;9.80;;;11.70;99.90;;;;;;5048905;28;20574;-70
2020/12/16 11:37:00;;;;;;;10.40;9.27;;;11.60;99.90;;;;;;5036806;28;20483;-71
2020/12/16 11:39:28;;;;;;;10.80;9.40;;;11.40;99.90;;;;;;5024405;28;20513;-72
2020/12/16 11:41:56;;;;;;;11.40;10.30;;;11.40;99.90;;;;;;5023307;28;20478;-71
2020/12/16 11:44:24;;;;;;;12.47;9.60;;;11.30;99.90;;;;;;5031440;28;20460;-70
2020/12/16 11:46:51;;;;;;;14.20;10.80;;;11.20;99.90;;;;;;5037159;28;20592;-70
2020/12/16 11:49:19;;;;;;;11.97;10.13;;;11.10;99.90;;;;;;5028806;28;20528;-72
2020/12/16 11:51:46;;;;;;;12.53;10.80;;;11.10;99.90;;;;;;5027841;28;20452;-70
2020/12/16 11:54:12;;;;;;;10.60;9.47;;;11.00;99.90;;;;;;5037463;28;20992;-71
2020/12/16 11:56:38;;;;;;;10.73;9.33;;;11.00;99.90;;;;;;5046162;28;20472;-71
2020/12/16 11:59:05;;;;;;;14.70;10.50;;;10.90;99.90;;;;;;5049442;28;20555;-71
2020/12/16 12:01:32;;;;;;;11.83;10.53;;;10.90;99.90;;;;;;5048553;28;20558;-71
2020/12/16 12:03:59;;;;;;;10.13;9.13;;;10.90;99.90;;;;;;5049386;28;20634;-70
2020/12/16 12:06:27;;;;;;;12.40;10.83;;;10.90;99.90;;;;;;5048945;28;20539;-71
2020/12/16 12:08:54;;;;;;;10.60;8.80;;;10.80;99.90;;;;;;5049369;28;20447;-71
2020/12/16 12:11:21;;;;;;;10.80;9.03;;;10.80;99.90;;;;;;5035234;28;20515;-71
2020/12/16 12:13:47;;;;;;;12.40;9.80;;;10.90;99.90;;;;;;5047066;28;20484;-71
2020/12/16 12:16:15;;;;;;;12.03;8.83;;;10.80;99.90;;;;;;5042374;28;20963;-71
2020/12/16 12:18:43;;;;;;;9.40;8.40;;;10.90;99.90;;;;;;5043911;28;20523;-71
2020/12/16 12:21:11;;;;;;;9.87;8.90;;;10.90;99.90;;;;;;5038524;28;21047;-71
2020/12/16 12:23:39;;;;;;;11.10;9.27;;;10.90;99.90;;;;;;5047444;28;20519;-71
2020/12/16 12:26:06;;;;;;;10.60;9.20;;;10.90;99.90;;;;;;5047574;28;20530;-71
2020/12/16 12:28:32;;;;;;;10.20;8.57;;;11.00;99.90;;;;;;5047638;28;20542;-71
2020/12/16 12:30:59;;;;;;;10.60;8.57;;;11.00;99.90;;;;;;5029489;28;20444;-70
2020/12/16 12:33:25;;;;;;;9.50;8.50;;;11.10;99.90;;;;;;5034745;28;20543;-70
2020/12/16 12:35:52;;;;;;;11.10;8.67;;;11.10;99.90;;;;;;5027203;28;21176;-69
2020/12/16 12:38:18;;;;;;;10.27;8.77;;;11.20;99.90;;;;;;5028204;28;20448;-70
2020/12/16 12:40:46;;;;;;;11.00;8.37;;;11.20;99.90;;;;;;5028040;28;20543;-70
2020/12/16 12:43:12;;;;;;;11.60;8.30;;;11.30;99.90;;;;;;5028747;28;20475;-70